Grand Junction, Tennessee
Current Conditions -  °F | °C
As of 2:15 AM on Friday 19 Dec 2014 (Local Time) from KOLV Reporting Station
Overcast Overcast  
Wind Chill: 34°   Ceiling: 3600
Heat Index: 39°   Visibility: 10mi
Dew Point: 39°   Wind: 7mph
Humidity: 100%   Direction: 30°NNE
Pressure: 30.21"   Gusts: NA
Location:  35.05°N, 89.19°W
Report Text: KOLV 190815Z AUTO 03006KT 10SM OVC036 04/04 A3021 RMK A01 P000
Loading
Personal Weather Stations






























Interactive Weather Map New forecast layout! Learn more

10-Day Weather Forecast

Advertisements
Track Severe Weather on mobile